Time;durP1;ratioP1;P1;durP2;ratioP2;P2;SDS_P1;SDS_P2;PMS_P1;PMS_P2;Temp;Humidity;BMP_temperature;BMP_pressure;BME280_temperature;BME280_humidity;BME280_pressure;Samples;Min_cycle;Max_cycle;Signal;HPM_P1;HPM_P2
2022/09/09 00:02:29;;;;;;;18.23;7.88;;;27.20;97.20;;;;;;5034459;28;20426;-68
2022/09/09 00:05:18;;;;;;;15.88;7.80;;;27.10;97.40;;;;;;5033995;28;20575;-67
2022/09/09 00:07:50;;;;;;;21.80;7.93;;;27.10;97.80;;;;;;5034239;28;20550;-68
2022/09/09 00:10:25;;;;;;;19.67;7.95;;;27.10;97.90;;;;;;5034413;28;20034;-69
2022/09/09 00:13:09;;;;;;;15.95;7.30;;;27.10;98.10;;;;;;5034354;28;20030;-70
2022/09/09 00:15:52;;;;;;;17.27;8.10;;;27.10;98.00;;;;;;5033848;28;20024;-69
2022/09/09 00:18:37;;;;;;;15.73;7.40;;;27.10;98.20;;;;;;5034223;28;20022;-68
2022/09/09 00:21:17;;;;;;;19.17;8.07;;;27.00;98.30;;;;;;5034032;28;20024;-68
2022/09/09 00:23:54;;;;;;;16.40;7.65;;;27.00;98.40;;;;;;5034014;28;20043;-71
2022/09/09 00:26:47;;;;;;;20.92;7.10;;;27.00;98.50;;;;;;5034524;28;20053;-67
2022/09/09 00:29:32;;;;;;;15.57;6.38;;;27.00;98.70;;;;;;5034354;28;20374;-68
2022/09/09 00:32:08;;;;;;;14.88;6.53;;;26.90;98.70;;;;;;5034154;28;20030;-68
2022/09/09 00:34:36;;;;;;;15.90;7.15;;;27.00;98.70;;;;;;5033898;28;20079;-69
2022/09/09 00:37:03;;;;;;;19.65;6.95;;;27.00;98.80;;;;;;5033646;28;20200;-67
2022/09/09 00:39:39;;;;;;;15.02;7.05;;;27.00;98.80;;;;;;5033726;28;20097;-72
2022/09/09 00:42:26;;;;;;;20.40;7.30;;;27.00;98.80;;;;;;5033623;28;20060;-68
2022/09/09 00:44:57;;;;;;;17.70;7.22;;;27.00;98.70;;;;;;5033568;28;20092;-67
2022/09/09 00:47:40;;;;;;;16.90;6.78;;;27.00;98.80;;;;;;5033639;28;20485;-68
2022/09/09 00:50:16;;;;;;;17.10;6.85;;;27.00;99.00;;;;;;5033633;28;20144;-69
2022/09/09 00:52:42;;;;;;;22.35;7.05;;;27.00;99.10;;;;;;5033636;28;20029;-68
2022/09/09 00:55:37;;;;;;;20.20;6.47;;;26.90;99.10;;;;;;5033177;28;20021;-68
2022/09/09 00:58:08;;;;;;;18.30;6.72;;;26.90;99.30;;;;;;5033786;28;20025;-67
2022/09/09 01:00:51;;;;;;;17.33;6.13;;;26.90;99.10;;;;;;5033302;28;20028;-69
2022/09/09 01:03:17;;;;;;;16.98;6.72;;;26.90;99.20;;;;;;5033197;28;20025;-69
2022/09/09 01:06:10;;;;;;;18.33;6.68;;;26.90;99.40;;;;;;5032998;28;20038;-68
2022/09/09 01:08:51;;;;;;;17.75;6.20;;;26.90;99.40;;;;;;5033035;28;20041;-68
2022/09/09 01:11:42;;;;;;;18.58;6.60;;;26.80;99.30;;;;;;5033187;28;20124;-72
2022/09/09 01:14:25;;;;;;;15.90;6.03;;;26.80;99.40;;;;;;5033154;28;20057;-68
2022/09/09 01:16:54;;;;;;;18.47;6.63;;;26.80;99.70;;;;;;5033201;28;20029;-68
2022/09/09 01:19:38;;;;;;;13.45;6.72;;;26.80;99.50;;;;;;5032994;28;20105;-68
2022/09/09 01:22:34;;;;;;;20.05;6.40;;;26.80;99.50;;;;;;5033023;28;20100;-68
2022/09/09 01:25:19;;;;;;;22.00;6.70;;;26.80;99.70;;;;;;5032963;28;20037;-69
2022/09/09 01:27:48;;;;;;;19.33;6.38;;;26.80;99.60;;;;;;5033140;28;20029;-69
2022/09/09 01:30:17;;;;;;;14.30;6.32;;;26.70;99.70;;;;;;5032935;28;20026;-69
2022/09/09 01:32:45;;;;;;;19.45;6.45;;;26.80;99.80;;;;;;5033541;28;20060;-69
2022/09/09 01:35:32;;;;;;;23.10;7.03;;;26.80;99.90;;;;;;5033289;28;20075;-69
2022/09/09 01:37:58;;;;;;;18.23;6.85;;;26.80;99.90;;;;;;5033265;28;20100;-68
2022/09/09 01:40:24;;;;;;;14.10;6.65;;;26.80;99.90;;;;;;5033123;28;20034;-69
2022/09/09 01:42:50;;;;;;;21.85;7.03;;;26.80;99.80;;;;;;5032791;28;20121;-68
2022/09/09 01:45:16;;;;;;;17.67;6.25;;;26.80;99.60;;;;;;5032769;28;20445;-67
2022/09/09 01:47:42;;;;;;;17.65;5.53;;;26.80;99.60;;;;;;5032797;28;20097;-70
2022/09/09 01:50:11;;;;;;;12.43;5.03;;;26.80;99.40;;;;;;5014941;28;20087;-71
2022/09/09 01:52:37;;;;;;;15.38;5.38;;;26.80;99.20;;;;;;5032808;28;20049;-70
2022/09/09 01:55:05;;;;;;;14.30;4.28;;;26.70;98.70;;;;;;5032492;28;20032;-70
2022/09/09 01:57:39;;;;;;;11.18;3.55;;;26.70;97.70;;;;;;5032587;28;20044;-68
2022/09/09 02:00:12;;;;;;;10.20;2.95;;;26.60;96.10;;;;;;5032924;28;20445;-69
2022/09/09 02:03:05;;;;;;;8.48;2.90;;;26.60;95.20;;;;;;5032813;28;20029;-69
2022/09/09 02:05:45;;;;;;;8.00;2.90;;;26.60;93.80;;;;;;5032496;28;20120;-69
2022/09/09 02:08:26;;;;;;;7.32;2.33;;;26.60;92.30;;;;;;5032544;28;20038;-70
2022/09/09 02:11:11;;;;;;;7.53;2.20;;;26.50;91.30;;;;;;5032537;28;20478;-71
2022/09/09 02:13:38;;;;;;;7.70;2.00;;;26.50;91.30;;;;;;5032629;28;20092;-71
2022/09/09 02:16:15;;;;;;;9.52;2.63;;;26.50;90.30;;;;;;5034437;28;20033;-69
2022/09/09 02:18:51;;;;;;;10.25;2.70;;;26.50;90.20;;;;;;5036250;28;20022;-70
2022/09/09 02:21:18;;;;;;;6.88;2.38;;;26.50;88.80;;;;;;5036377;28;20087;-69
2022/09/09 02:23:47;;;;;;;12.05;2.25;;;26.50;88.70;;;;;;5036204;28;20371;-69
2022/09/09 02:26:19;;;;;;;7.65;2.28;;;26.50;88.20;;;;;;5036233;28;20041;-69
2022/09/09 02:28:46;;;;;;;8.00;2.38;;;26.40;88.20;;;;;;5036219;28;20033;-70
2022/09/09 02:31:15;;;;;;;6.38;2.13;;;26.40;87.90;;;;;;5036083;28;20021;-67
2022/09/09 02:33:47;;;;;;;9.32;2.50;;;26.40;87.60;;;;;;5035714;28;20113;-69
2022/09/09 02:36:16;;;;;;;5.70;2.58;;;26.30;87.40;;;;;;5036146;28;20025;-68
2022/09/09 02:38:50;;;;;;;8.40;2.67;;;26.30;87.90;;;;;;5035829;28;20486;-67
2022/09/09 02:41:22;;;;;;;6.78;2.33;;;26.30;87.60;;;;;;5035982;28;20025;-69
2022/09/09 02:43:48;;;;;;;8.90;2.22;;;26.30;88.10;;;;;;5035540;28;20029;-68
2022/09/09 02:46:51;;;;;;;11.45;2.90;;;26.30;87.40;;;;;;5035753;28;20095;-67
2022/09/09 02:49:39;;;;;;;8.82;2.58;;;26.20;88.30;;;;;;5035720;28;20479;-68
2022/09/09 02:52:18;;;;;;;12.13;2.70;;;26.10;88.40;;;;;;5035668;28;20025;-69
2022/09/09 02:54:44;;;;;;;8.73;2.83;;;26.20;88.40;;;;;;5035415;28;20100;-68
2022/09/09 02:57:21;;;;;;;7.40;2.80;;;26.20;87.60;;;;;;5035643;28;20108;-68
2022/09/09 02:59:47;;;;;;;10.20;2.75;;;26.30;87.50;;;;;;5017769;28;20033;-69
2022/09/09 03:02:13;;;;;;;10.57;2.92;;;26.20;87.30;;;;;;5035486;28;20032;-69
2022/09/09 03:04:41;;;;;;;10.88;2.85;;;26.20;87.50;;;;;;5035504;28;20041;-70
2022/09/09 03:07:07;;;;;;;10.38;2.80;;;26.20;87.50;;;;;;5035304;28;20034;-67
2022/09/09 03:09:33;;;;;;;11.38;3.25;;;26.20;87.50;;;;;;5035662;28;20109;-68
2022/09/09 03:11:59;;;;;;;9.77;3.08;;;26.10;87.80;;;;;;5035676;28;20024;-69
2022/09/09 03:14:25;;;;;;;11.27;2.95;;;26.10;88.10;;;;;;5035253;28;20025;-71
2022/09/09 03:16:53;;;;;;;13.02;3.22;;;26.10;88.40;;;;;;5035191;28;20068;-69
2022/09/09 03:19:20;;;;;;;9.30;2.90;;;26.10;88.10;;;;;;5035231;28;20030;-68
2022/09/09 03:21:46;;;;;;;10.65;2.95;;;26.20;88.20;;;;;;5035098;28;20100;-68
2022/09/09 03:24:13;;;;;;;14.75;4.13;;;26.20;88.60;;;;;;5035106;28;20033;-69
2022/09/09 03:26:40;;;;;;;14.82;3.90;;;26.20;88.90;;;;;;5034810;28;20021;-69
2022/09/09 03:29:07;;;;;;;13.05;3.65;;;26.20;89.20;;;;;;5034800;28;20060;-69
2022/09/09 03:31:34;;;;;;;12.30;3.60;;;26.20;89.40;;;;;;5035257;28;20017;-68
2022/09/09 03:33:59;;;;;;;13.95;4.38;;;26.20;89.60;;;;;;5035047;28;20025;-68
2022/09/09 03:36:26;;;;;;;8.90;3.50;;;26.20;89.70;;;;;;5034790;28;20033;-68
2022/09/09 03:38:54;;;;;;;10.95;3.80;;;26.20;89.80;;;;;;5016990;28;20025;-68
2022/09/09 03:41:21;;;;;;;14.48;3.63;;;26.10;89.90;;;;;;5034789;28;20497;-67
2022/09/09 03:43:47;;;;;;;12.73;3.50;;;26.10;90.10;;;;;;5034715;28;20435;-68
2022/09/09 03:46:13;;;;;;;14.00;3.47;;;26.10;90.20;;;;;;5034703;28;20040;-68
2022/09/09 03:48:38;;;;;;;14.30;3.60;;;26.20;90.20;;;;;;5034621;28;20033;-68
2022/09/09 03:51:04;;;;;;;13.88;4.15;;;26.20;90.20;;;;;;5034525;28;20490;-69
2022/09/09 03:53:30;;;;;;;10.20;3.55;;;26.20;90.20;;;;;;5034529;28;20410;-69
2022/09/09 03:55:59;;;;;;;20.73;5.07;;;26.20;90.30;;;;;;5034432;28;20025;-69
2022/09/09 03:58:26;;;;;;;12.57;4.15;;;26.20;90.50;;;;;;5034542;28;20116;-72
2022/09/09 04:00:59;;;;;;;15.20;5.05;;;26.20;90.90;;;;;;5034601;28;20463;-71
2022/09/09 04:03:25;;;;;;;15.80;5.53;;;26.20;91.10;;;;;;5034768;28;20037;-69
2022/09/09 04:05:54;;;;;;;14.38;5.07;;;26.20;91.30;;;;;;5034111;28;20056;-68
2022/09/09 04:08:20;;;;;;;18.15;5.15;;;26.20;91.70;;;;;;5032790;28;20545;-69
2022/09/09 04:10:50;;;;;;;16.58;5.53;;;26.20;92.00;;;;;;5016646;28;20479;-71
2022/09/09 04:13:20;;;;;;;16.10;5.38;;;26.10;92.40;;;;;;5034848;28;20029;-68
2022/09/09 04:15:53;;;;;;;15.98;5.65;;;26.10;92.50;;;;;;5034348;28;20037;-69
2022/09/09 04:18:20;;;;;;;16.73;6.30;;;26.10;92.60;;;;;;5034252;28;20516;-72
2022/09/09 04:20:47;;;;;;;19.88;6.07;;;26.10;92.80;;;;;;5034081;28;20025;-76
2022/09/09 04:23:13;;;;;;;14.50;5.57;;;26.10;93.00;;;;;;5034125;28;20059;-71
2022/09/09 04:25:47;;;;;;;15.90;5.47;;;26.00;93.20;;;;;;5033757;28;20033;-71
2022/09/09 04:28:16;;;;;;;;;;;25.90;93.20;;;;;;5034413;28;20479;-74
2022/09/09 04:30:42;;;;;;;18.42;6.13;;;25.90;93.70;;;;;;5033933;28;20270;-71
2022/09/09 04:33:11;;;;;;;19.45;5.28;;;25.90;93.40;;;;;;5033942;28;20129;-71
2022/09/09 04:35:38;;;;;;;15.82;5.57;;;25.90;93.40;;;;;;5033689;28;20171;-71
2022/09/09 04:38:07;;;;;;;15.85;5.75;;;25.90;93.40;;;;;;5033495;28;20032;-73
2022/09/09 04:40:33;;;;;;;13.02;4.47;;;25.90;93.30;;;;;;5033842;28;20045;-74
2022/09/09 04:43:01;;;;;;;19.90;5.45;;;25.90;93.30;;;;;;5033842;28;20414;-75
2022/09/09 04:45:27;;;;;;;18.52;5.50;;;25.90;93.30;;;;;;5033571;28;20038;-73
2022/09/09 04:47:53;;;;;;;13.70;4.90;;;25.90;93.30;;;;;;5033710;28;20032;-75
2022/09/09 04:50:19;;;;;;;15.90;5.35;;;25.90;93.20;;;;;;5032614;28;20380;-76
2022/09/09 04:52:45;;;;;;;19.20;5.53;;;25.90;93.10;;;;;;5033797;28;20025;-73
2022/09/09 04:55:12;;;;;;;19.88;6.90;;;25.90;93.20;;;;;;5033470;28;20041;-73
2022/09/09 04:57:38;;;;;;;15.55;5.55;;;25.80;93.40;;;;;;5033475;28;20035;-72
2022/09/09 05:00:05;;;;;;;17.45;5.28;;;25.80;93.40;;;;;;5033500;28;20364;-75
2022/09/09 05:02:31;;;;;;;20.30;6.07;;;25.90;93.40;;;;;;5033582;28;20022;-72
2022/09/09 05:04:58;;;;;;;25.00;7.00;;;25.90;93.40;;;;;;5033302;28;20545;-73
2022/09/09 05:07:27;;;;;;;20.48;6.68;;;25.90;93.30;;;;;;5032918;28;20091;-76
2022/09/09 05:09:53;;;;;;;22.15;6.20;;;25.90;93.30;;;;;;5032951;28;20030;-73
2022/09/09 05:12:19;;;;;;;18.13;5.80;;;25.90;93.20;;;;;;5033263;28;20053;-69
2022/09/09 05:14:44;;;;;;;16.08;5.20;;;25.90;93.20;;;;;;5033315;28;20049;-70
2022/09/09 05:17:11;;;;;;;17.10;4.93;;;25.90;93.10;;;;;;5033211;28;20470;-72
2022/09/09 05:19:37;;;;;;;17.27;5.30;;;25.90;93.20;;;;;;5032806;28;20423;-75
2022/09/09 05:22:03;;;;;;;14.73;5.43;;;26.00;93.10;;;;;;5032881;28;20029;-71
2022/09/09 05:24:32;;;;;;;18.83;5.68;;;26.00;93.00;;;;;;5032917;28;20041;-68
2022/09/09 05:27:01;;;;;;;14.60;5.15;;;26.00;93.00;;;;;;5032811;28;20155;-68
2022/09/09 05:29:27;;;;;;;15.10;5.30;;;26.00;93.20;;;;;;5033042;28;20025;-71
2022/09/09 05:31:53;;;;;;;12.65;5.15;;;26.00;93.00;;;;;;5032681;28;20120;-68
2022/09/09 05:34:20;;;;;;;13.13;4.63;;;26.00;92.90;;;;;;5032629;28;20025;-69
2022/09/09 05:36:46;;;;;;;16.15;5.72;;;26.10;92.90;;;;;;5032793;28;20030;-68
2022/09/09 05:39:12;;;;;;;18.42;5.68;;;26.10;92.90;;;;;;5032516;28;20071;-69
2022/09/09 05:41:38;;;;;;;13.55;5.88;;;26.10;92.90;;;;;;5032750;28;20025;-69
2022/09/09 05:44:04;;;;;;;17.85;5.88;;;26.10;93.00;;;;;;5032486;28;20112;-69
2022/09/09 05:46:30;;;;;;;16.08;5.85;;;26.20;92.90;;;;;;5032590;28;20124;-70
2022/09/09 05:48:56;;;;;;;18.02;6.50;;;26.20;92.90;;;;;;5032664;28;20089;-70
2022/09/09 05:51:27;;;;;;;19.42;5.90;;;26.30;92.80;;;;;;5037401;28;20029;-72
2022/09/09 05:53:55;;;;;;;22.05;5.75;;;26.40;92.70;;;;;;5038916;28;20025;-68
2022/09/09 05:56:24;;;;;;;20.02;5.78;;;26.50;92.50;;;;;;5039211;28;20083;-70
2022/09/09 05:58:51;;;;;;;13.70;5.32;;;26.70;92.30;;;;;;5039115;28;20029;-69
2022/09/09 06:01:20;;;;;;;21.20;5.57;;;26.90;91.90;;;;;;5021203;28;20034;-73
2022/09/09 06:03:47;;;;;;;22.75;5.82;;;27.00;91.50;;;;;;5038836;28;20463;-69
2022/09/09 06:06:20;;;;;;;16.58;5.95;;;27.10;90.90;;;;;;5039130;28;20047;-71
2022/09/09 06:08:46;;;;;;;;;;;27.30;91.00;;;;;;5037759;28;20118;-68
2022/09/09 06:11:23;;;;;;;18.55;5.25;;;27.50;90.50;;;;;;5038806;28;20328;-69
2022/09/09 06:13:54;;;;;;;15.93;5.32;;;27.60;90.20;;;;;;5020946;28;20029;-72
2022/09/09 06:16:24;;;;;;;17.00;5.00;;;27.80;89.30;;;;;;5039032;28;20486;-67
2022/09/09 06:18:51;;;;;;;17.83;5.78;;;27.90;88.70;;;;;;5038600;28;20025;-70
2022/09/09 06:21:22;;;;;;;21.73;5.97;;;28.00;88.20;;;;;;5038522;28;20105;-70
2022/09/09 06:23:48;;;;;;;14.13;5.07;;;28.10;87.60;;;;;;5038692;28;20044;-67
2022/09/09 06:26:25;;;;;;;19.20;5.32;;;28.30;87.20;;;;;;5038899;28;20079;-69
2022/09/09 06:28:54;;;;;;;18.38;5.35;;;28.40;87.30;;;;;;5039121;28;20036;-69
2022/09/09 06:31:21;;;;;;;15.70;5.25;;;28.60;85.80;;;;;;5039030;28;20025;-69
2022/09/09 06:33:49;;;;;;;19.98;5.30;;;28.60;85.70;;;;;;5038078;28;20572;-69
2022/09/09 06:36:29;;;;;;;17.13;5.15;;;28.60;86.20;;;;;;5038673;28;20439;-70
2022/09/09 06:38:57;;;;;;;18.55;5.53;;;28.70;86.40;;;;;;5038882;28;20036;-68
2022/09/09 06:41:26;;;;;;;21.52;5.72;;;28.80;87.20;;;;;;5038969;28;20033;-69
2022/09/09 06:43:52;;;;;;;17.67;5.00;;;29.00;86.10;;;;;;5020806;28;20028;-70
2022/09/09 06:46:18;;;;;;;18.17;4.90;;;29.00;86.30;;;;;;5038975;28;20406;-70
2022/09/09 06:48:45;;;;;;;17.77;5.00;;;29.00;86.50;;;;;;5039056;28;20101;-70
2022/09/09 06:51:17;;;;;;;21.45;5.47;;;29.20;86.50;;;;;;5038979;28;20060;-69
2022/09/09 06:53:44;;;;;;;22.15;5.72;;;29.30;87.50;;;;;;5039111;28;20100;-70
2022/09/09 06:56:10;;;;;;;20.77;5.15;;;29.40;86.40;;;;;;5038751;28;20029;-72
2022/09/09 06:58:45;;;;;;;16.70;4.28;;;29.40;86.30;;;;;;5039058;28;20071;-71
2022/09/09 07:01:14;;;;;;;17.63;4.05;;;29.60;85.80;;;;;;5038390;28;20035;-71
2022/09/09 07:03:40;;;;;;;16.65;4.70;;;29.70;85.30;;;;;;5034283;28;20368;-73
2022/09/09 07:06:09;;;;;;;15.02;4.55;;;29.80;85.50;;;;;;5035405;28;20029;-71
2022/09/09 07:08:34;;;;;;;18.88;4.43;;;29.80;89.30;;;;;;5035130;28;20056;-72
2022/09/09 07:11:05;;;;;;;16.52;3.90;;;29.90;88.00;;;;;;5035502;28;20030;-70
2022/09/09 07:13:31;;;;;;;20.33;4.45;;;30.00;88.10;;;;;;5035656;28;20377;-69
2022/09/09 07:16:08;;;;;;;29.65;5.47;;;29.90;88.40;;;;;;5035139;28;20021;-70
2022/09/09 07:18:34;;;;;;;16.75;4.32;;;29.90;85.60;;;;;;5034911;28;20025;-70
2022/09/09 07:21:01;;;;;;;17.63;4.20;;;30.00;84.80;;;;;;5033882;28;20112;-69
2022/09/09 07:23:28;;;;;;;20.10;4.50;;;29.90;84.80;;;;;;5035020;28;20049;-70
2022/09/09 07:25:54;;;;;;;16.92;3.65;;;29.90;85.00;;;;;;5034985;28;20137;-68
2022/09/09 07:28:20;;;;;;;16.45;3.80;;;30.00;84.10;;;;;;5034711;28;20057;-69
2022/09/09 07:31:04;;;;;;;14.63;3.75;;;30.10;85.70;;;;;;5034984;28;20030;-69
2022/09/09 07:33:31;;;;;;;15.57;3.70;;;30.30;82.20;;;;;;5034135;28;20025;-72
2022/09/09 07:36:08;;;;;;;20.98;4.22;;;30.50;81.70;;;;;;5035055;28;20013;-72
2022/09/09 07:38:43;;;;;;;19.40;4.22;;;30.70;80.50;;;;;;5034905;28;20025;-71
2022/09/09 07:41:16;;;;;;;15.65;3.60;;;30.90;79.90;;;;;;5034586;28;20036;-70
2022/09/09 07:43:43;;;;;;;24.23;4.43;;;31.00;79.60;;;;;;5016516;28;20057;-75
2022/09/09 07:46:10;;;;;;;16.42;4.00;;;30.90;79.50;;;;;;5034617;28;20036;-69
2022/09/09 07:48:36;;;;;;;16.27;3.83;;;30.80;79.20;;;;;;5034695;28;20028;-72
2022/09/09 07:51:08;;;;;;;19.02;3.63;;;30.90;79.00;;;;;;5034608;28;20021;-68
2022/09/09 07:53:35;;;;;;;16.10;3.22;;;30.90;78.50;;;;;;5034506;28;20075;-70
2022/09/09 07:56:10;;;;;;;15.32;3.47;;;30.80;78.10;;;;;;5035081;28;20374;-70
2022/09/09 07:58:37;;;;;;;15.48;3.50;;;30.80;78.20;;;;;;5034480;28;20095;-68
2022/09/09 08:01:11;;;;;;;15.60;3.88;;;30.80;78.10;;;;;;5034768;28;20021;-71
2022/09/09 08:03:37;;;;;;;13.30;3.40;;;30.70;77.30;;;;;;5034306;28;20453;-70
2022/09/09 08:06:06;;;;;;;14.85;4.05;;;30.60;77.70;;;;;;5034351;28;20486;-73
2022/09/09 08:08:32;;;;;;;16.23;3.85;;;30.50;77.70;;;;;;5034054;28;20438;-70
2022/09/09 08:11:09;;;;;;;14.65;3.60;;;30.40;77.60;;;;;;5034452;28;20076;-69
2022/09/09 08:13:36;;;;;;;12.75;3.30;;;30.40;77.20;;;;;;5033882;28;20037;-68
2022/09/09 08:16:14;;;;;;;12.18;3.20;;;30.40;77.10;;;;;;5034293;28;20436;-69
2022/09/09 08:18:41;;;;;;;14.57;3.88;;;30.30;76.60;;;;;;5033955;28;20033;-71
2022/09/09 08:21:12;;;;;;;12.15;3.15;;;30.20;76.80;;;;;;5033794;28;20021;-71
2022/09/09 08:23:42;;;;;;;10.27;3.20;;;30.20;76.60;;;;;;5033736;28;20033;-69
2022/09/09 08:26:23;;;;;;;13.68;3.03;;;30.30;76.60;;;;;;5034030;28;20104;-73
2022/09/09 08:28:51;;;;;;;10.25;3.22;;;30.30;75.70;;;;;;5033878;28;20025;-68
2022/09/09 08:31:26;;;;;;;10.52;2.58;;;30.30;75.60;;;;;;5033819;28;20102;-69
2022/09/09 08:33:52;;;;;;;13.25;3.63;;;30.40;74.80;;;;;;5033766;28;20106;-71
2022/09/09 08:36:21;;;;;;;16.23;3.28;;;30.50;75.10;;;;;;5033657;28;20071;-69
2022/09/09 08:38:51;;;;;;;22.65;3.53;;;30.50;75.00;;;;;;5033667;28;20475;-72
2022/09/09 08:41:54;;;;;;;9.27;2.75;;;30.50;74.90;;;;;;5032668;28;20102;-72
2022/09/09 08:44:42;;;;;;;16.50;3.67;;;30.50;74.10;;;;;;5033313;28;20046;-71
2022/09/09 08:47:32;;;;;;;15.02;3.45;;;30.40;74.30;;;;;;5033374;28;20036;-72
2022/09/09 08:50:15;;;;;;;13.77;3.00;;;30.40;74.40;;;;;;5033760;28;20502;-74
2022/09/09 08:52:47;;;;;;;;;;;30.40;74.10;;;;;;5034217;28;20029;-69
2022/09/09 08:55:41;;;;;;;11.57;2.97;;;30.30;73.10;;;;;;5033238;28;19905;-71
2022/09/09 08:58:24;;;;;;;11.65;2.50;;;30.40;73.30;;;;;;5033433;28;20479;-70
2022/09/09 09:01:08;;;;;;;10.05;2.75;;;30.40;72.80;;;;;;5033554;28;20104;-68
2022/09/09 09:03:56;;;;;;;7.47;2.10;;;30.40;71.40;;;;;;5033229;28;20021;-69
2022/09/09 09:06:30;;;;;;;12.02;2.88;;;30.30;70.00;;;;;;5033047;28;20037;-70
2022/09/09 09:09:33;;;;;;;13.98;2.83;;;30.20;70.00;;;;;;5032904;28;20494;-71
2022/09/09 09:12:02;;;;;;;14.68;3.30;;;30.30;69.40;;;;;;5033058;28;20033;-68
2022/09/09 09:14:35;;;;;;;9.90;2.30;;;30.40;69.30;;;;;;5015171;28;20021;-72
2022/09/09 09:17:09;;;;;;;9.65;2.83;;;30.40;68.80;;;;;;5031755;28;20083;-71
2022/09/09 09:19:38;;;;;;;12.15;2.80;;;30.30;69.50;;;;;;5033241;28;20033;-69
2022/09/09 09:22:11;;;;;;;11.50;2.70;;;30.20;69.90;;;;;;5014817;28;20034;-69
2022/09/09 09:24:57;;;;;;;16.63;3.35;;;30.20;70.50;;;;;;5032477;28;20034;-72
2022/09/09 09:27:33;;;;;;;11.88;2.80;;;30.20;71.10;;;;;;5032878;28;20025;-69
2022/09/09 09:30:00;;;;;;;11.45;2.42;;;30.30;70.80;;;;;;5033050;28;20087;-68
2022/09/09 09:32:33;;;;;;;10.82;2.55;;;30.40;70.50;;;;;;5033052;28;20025;-69
2022/09/09 09:35:00;;;;;;;15.05;3.40;;;30.40;69.40;;;;;;5033008;28;20025;-75
2022/09/09 09:37:34;;;;;;;11.30;3.03;;;30.40;69.00;;;;;;5032639;28;20033;-69
2022/09/09 09:40:10;;;;;;;14.45;3.08;;;30.30;67.80;;;;;;5032304;28;20033;-70
2022/09/09 09:42:38;;;;;;;9.13;2.50;;;30.40;68.70;;;;;;5032554;28;20116;-68
2022/09/09 09:45:27;;;;;;;9.32;2.47;;;30.40;68.20;;;;;;5032396;28;20037;-69
2022/09/09 09:48:04;;;;;;;8.65;2.15;;;30.50;67.80;;;;;;5032257;28;20044;-68
2022/09/09 09:50:31;;;;;;;13.45;2.78;;;30.50;68.10;;;;;;5032698;28;20037;-70
2022/09/09 09:53:04;;;;;;;9.10;2.10;;;30.60;67.10;;;;;;5031176;28;20057;-68
2022/09/09 09:55:31;;;;;;;;;;;30.60;66.40;;;;;;5033130;28;20037;-73
2022/09/09 09:58:04;;;;;;;10.40;2.40;;;30.70;63.80;;;;;;5032467;28;19937;-69
2022/09/09 10:00:30;;;;;;;;;;;30.70;64.20;;;;;;5032800;28;20068;-70
2022/09/09 10:02:56;;;;;;;9.85;2.15;;;30.70;61.70;;;;;;5032492;28;19905;-72
2022/09/09 10:05:30;;;;;;;10.70;2.20;;;30.70;64.40;;;;;;5032461;28;20451;-69
2022/09/09 10:08:11;;;;;;;10.45;2.50;;;30.70;63.10;;;;;;5032758;28;20042;-70
2022/09/09 10:10:58;;;;;;;11.40;2.00;;;30.80;63.00;;;;;;5032810;28;20120;-70
2022/09/09 10:13:45;;;;;;;7.40;2.00;;;30.80;61.70;;;;;;5032682;28;20034;-71
2022/09/09 10:16:20;;;;;;;9.65;2.45;;;30.90;62.00;;;;;;5032539;28;20128;-71
2022/09/09 10:19:00;;;;;;;12.85;2.35;;;30.90;61.70;;;;;;5032694;28;20052;-72
2022/09/09 10:21:25;;;;;;;12.77;2.30;;;31.00;59.40;;;;;;5032509;28;20111;-72
2022/09/09 10:24:00;;;;;;;8.25;2.22;;;31.00;59.40;;;;;;5032416;28;20479;-68
2022/09/09 10:26:47;;;;;;;10.20;2.10;;;31.10;59.60;;;;;;5032747;28;20036;-73
2022/09/09 10:29:25;;;;;;;8.32;1.80;;;31.20;58.90;;;;;;5032500;28;20056;-71
2022/09/09 10:32:12;;;;;;;8.50;2.42;;;31.20;58.50;;;;;;5032422;28;20083;-69
2022/09/09 10:34:57;;;;;;;6.82;2.10;;;31.20;58.10;;;;;;5032596;28;20025;-73
2022/09/09 10:37:42;;;;;;;11.77;2.20;;;31.30;57.80;;;;;;5034850;28;20025;-71
2022/09/09 10:40:30;;;;;;;13.10;3.00;;;31.50;57.40;;;;;;5036381;28;20025;-70
2022/09/09 10:43:23;;;;;;;9.55;2.63;;;31.60;57.40;;;;;;5018110;28;20030;-68
2022/09/09 10:46:18;;;;;;;11.18;2.75;;;31.60;56.80;;;;;;5027906;28;20122;-70
2022/09/09 10:49:15;;;;;;;8.55;2.08;;;31.70;56.10;;;;;;5034429;28;20470;-69
2022/09/09 10:51:44;;;;;;;10.00;2.53;;;31.80;56.90;;;;;;5035646;28;20056;-70
2022/09/09 10:54:16;;;;;;;10.82;2.53;;;31.90;56.60;;;;;;5036368;28;20036;-70
2022/09/09 10:56:48;;;;;;;11.55;2.45;;;32.10;55.80;;;;;;5035923;28;20021;-70
2022/09/09 10:59:31;;;;;;;11.98;2.15;;;32.20;55.50;;;;;;5035442;28;20026;-68
2022/09/09 11:02:19;;;;;;;8.52;2.53;;;32.40;53.90;;;;;;5036170;28;20045;-69
2022/09/09 11:04:57;;;;;;;12.68;2.67;;;32.60;53.40;;;;;;5035216;28;20071;-71
2022/09/09 11:07:47;;;;;;;8.73;2.35;;;32.70;52.90;;;;;;5035321;28;20041;-73
2022/09/09 11:10:42;;;;;;;11.57;2.42;;;32.90;53.60;;;;;;5035000;28;20416;-68
2022/09/09 11:13:17;;;;;;;10.75;2.35;;;32.90;52.80;;;;;;5033675;28;20080;-68
2022/09/09 11:15:54;;;;;;;4.57;1.63;;;33.00;52.70;;;;;;5035487;28;20039;-74
2022/09/09 11:18:23;;;;;;;7.40;1.80;;;33.00;52.40;;;;;;5035492;28;20033;-75
2022/09/09 11:21:01;;;;;;;7.80;1.80;;;33.00;53.10;;;;;;5035471;28;20490;-68
2022/09/09 11:23:43;;;;;;;9.95;2.10;;;33.10;51.00;;;;;;5035241;28;20026;-72
2022/09/09 11:26:20;;;;;;;15.13;2.65;;;33.00;51.80;;;;;;5035469;28;20378;-70
2022/09/09 11:29:14;;;;;;;10.48;2.47;;;33.00;52.90;;;;;;5035364;28;20176;-69
2022/09/09 11:32:13;;;;;;;8.23;2.40;;;32.90;51.50;;;;;;5035240;28;20029;-69
2022/09/09 11:34:44;;;;;;;9.73;1.95;;;32.40;50.40;;;;;;5035140;28;20080;-69
2022/09/09 11:37:19;;;;;;;9.32;2.75;;;32.00;52.60;;;;;;5035102;28;20033;-71
2022/09/09 11:39:58;;;;;;;8.00;2.22;;;31.80;51.80;;;;;;5034907;28;20037;-72
2022/09/09 11:42:24;;;;;;;8.27;2.20;;;31.80;51.60;;;;;;5034751;28;20037;-69
2022/09/09 11:44:51;;;;;;;10.32;2.88;;;31.80;52.80;;;;;;5034443;28;20212;-68
2022/09/09 11:47:37;;;;;;;8.88;2.25;;;31.90;53.00;;;;;;5034658;28;20045;-69
2022/09/09 11:50:14;;;;;;;10.40;2.08;;;32.10;52.40;;;;;;5033957;28;20574;-69
2022/09/09 11:52:45;;;;;;;4.38;1.70;;;32.20;50.60;;;;;;5034757;28;20136;-68
2022/09/09 11:55:32;;;;;;;7.75;1.83;;;32.20;48.70;;;;;;5034234;28;20109;-68
2022/09/09 11:58:02;;;;;;;11.52;2.10;;;32.10;46.40;;;;;;5034427;28;20505;-69
2022/09/09 12:00:44;;;;;;;8.02;1.80;;;32.00;47.10;;;;;;5016943;28;20132;-69
2022/09/09 12:03:48;;;;;;;10.98;2.15;;;32.00;48.40;;;;;;5034466;28;20379;-68
2022/09/09 12:06:26;;;;;;;8.68;2.15;;;32.10;48.90;;;;;;5033540;28;20049;-70
2022/09/09 12:08:58;;;;;;;9.45;2.13;;;32.20;49.40;;;;;;5034133;28;20049;-68
2022/09/09 12:11:26;;;;;;;8.10;2.03;;;32.30;48.90;;;;;;5034243;28;20087;-70
2022/09/09 12:13:57;;;;;;;9.15;2.47;;;32.30;48.90;;;;;;5034263;28;20031;-69
2022/09/09 12:16:35;;;;;;;8.07;2.03;;;32.30;48.90;;;;;;5034054;28;20140;-68
2022/09/09 12:19:21;;;;;;;10.35;2.00;;;32.40;49.90;;;;;;5033996;28;20061;-69
2022/09/09 12:22:21;;;;;;;8.40;2.22;;;32.30;48.80;;;;;;5034175;28;20025;-70
2022/09/09 12:25:16;;;;;;;8.63;1.95;;;32.40;49.40;;;;;;5033946;28;20442;-68
2022/09/09 12:27:57;;;;;;;8.57;2.35;;;32.50;50.80;;;;;;5033450;28;20037;-68
2022/09/09 12:30:29;;;;;;;9.73;2.33;;;32.30;50.30;;;;;;5015896;28;20059;-69
2022/09/09 12:33:02;;;;;;;9.68;2.25;;;32.30;49.80;;;;;;5033584;28;20502;-69
2022/09/09 12:35:30;;;;;;;12.95;2.45;;;32.40;49.10;;;;;;5033592;28;20021;-68
2022/09/09 12:38:00;;;;;;;9.35;2.20;;;32.50;48.70;;;;;;5034045;28;20029;-68
2022/09/09 12:40:38;;;;;;;9.32;2.33;;;32.60;48.20;;;;;;5033646;28;20022;-68
2022/09/09 12:43:21;;;;;;;8.30;2.05;;;32.40;47.90;;;;;;5032276;28;20029;-68
2022/09/09 12:45:50;;;;;;;7.63;1.60;;;32.20;48.40;;;;;;5033224;28;20456;-69
2022/09/09 12:48:19;;;;;;;8.73;2.25;;;32.20;48.40;;;;;;5033563;28;20017;-69
2022/09/09 12:50:51;;;;;;;7.18;2.20;;;32.30;48.50;;;;;;5033690;28;20104;-68
2022/09/09 12:53:31;;;;;;;8.38;2.10;;;32.60;47.30;;;;;;5033617;28;20362;-70
2022/09/09 12:56:09;;;;;;;6.45;1.95;;;32.90;46.90;;;;;;5033291;28;20308;-68
2022/09/09 12:58:37;;;;;;;10.93;2.28;;;33.00;46.60;;;;;;5033690;28;20029;-69
2022/09/09 13:01:05;;;;;;;7.10;2.55;;;33.20;47.90;;;;;;5032400;28;20438;-69
2022/09/09 13:03:32;;;;;;;9.25;2.38;;;33.30;47.60;;;;;;5033018;28;20051;-69
2022/09/09 13:06:11;;;;;;;13.05;2.55;;;33.30;47.30;;;;;;5033330;28;20034;-70
2022/09/09 13:08:37;;;;;;;10.07;2.58;;;33.20;47.70;;;;;;5033030;28;20051;-67
2022/09/09 13:11:10;;;;;;;10.00;2.38;;;33.00;48.40;;;;;;5015464;28;20033;-69
2022/09/09 13:13:41;;;;;;;11.45;2.20;;;32.90;48.20;;;;;;5015392;28;20382;-68